ADDS METAR Data INFO
IDs: Format: Raw Decoded Include TAF

Data at: 0022 UTC 17 Dec 2017

KSTF 170015Z AUTO 13003KT 10SM CLR 05/00 A3023 RMK AO2
KSTF 162355Z AUTO 13003KT 10SM CLR 06/00 A3022 RMK AO2
KSTF 162335Z AUTO 14003KT 10SM CLR 06/00 A3022 RMK AO2
KSTF 162315Z AUTO 14004KT 10SM CLR 07/00 A3022 RMK AO2
KSTF 162255Z AUTO 15004KT 10SM CLR 08/00 A3022 RMK AO2
KSTF 162235Z AUTO 15004KT 10SM CLR 10/00 A3022 RMK AO2
KSTF 162215Z AUTO 15005KT 10SM CLR 10/00 A3022 RMK AO2
KSTF 162155Z AUTO 16003KT 10SM CLR 11/00 A3023 RMK AO2
KSTF 162135Z AUTO 15004KT 10SM CLR 11/00 A3024 RMK AO2
KSTF 162115Z AUTO 17004KT 10SM CLR 11/M01 A3023 RMK AO2
KSTF 162055Z AUTO 15005KT 10SM CLR 11/M01 A3023 RMK AO2
KSTF 162035Z AUTO 14005KT 10SM CLR 11/00 A3024 RMK AO2
KSTF 162015Z AUTO 17003KT 10SM CLR 11/00 A3025 RMK AO2
KSTF 161955Z AUTO 16004KT 10SM CLR 10/00 A3026 RMK AO2
KSTF 161935Z AUTO 14005KT 10SM CLR 10/00 A3026 RMK AO2
KSTF 161915Z AUTO 15006KT 10SM CLR 10/00 A3026 RMK AO2
KSTF 161855Z AUTO 17004KT 10SM CLR 10/00 A3027 RMK AO2
KSTF 161835Z AUTO 14005KT 10SM CLR 10/00 A3027 RMK AO2
KSTF 161815Z AUTO 16004KT 10SM CLR 10/00 A3029 RMK AO2
KSTF 161755Z AUTO 13004KT 10SM CLR 10/00 A3031 RMK AO2
KSTF 161735Z AUTO 16006KT 10SM CLR 08/00 A3032 RMK AO2
KSTF 161715Z AUTO 17005KT 10SM CLR 08/M01 A3033 RMK AO2
KSTF 161655Z AUTO 17005KT 10SM CLR 07/M01 A3034 RMK AO2
KSTF 161635Z AUTO 18005KT 10SM CLR 06/00 A3034 RMK AO2
KSTF 161615Z AUTO 18006KT 10SM CLR 05/00 A3034 RMK AO2
KSTF 161555Z AUTO 16003KT 10SM CLR 03/00 A3034 RMK AO2
KSTF 161535Z AUTO 17004KT 10SM CLR 02/00 A3033 RMK AO2
KSTF 161515Z AUTO 16003KT 10SM CLR 00/00 A3033 RMK AO2
KSTF 161455Z AUTO 00000KT 10SM CLR M01/M01 A3033 RMK AO2
KSTF 161435Z AUTO 00000KT 10SM CLR M02/M02 A3033 RMK AO2
KSTF 161415Z AUTO 20003KT 10SM CLR M02/M03 A3033 RMK AO2
KSTF 161355Z AUTO 19003KT 10SM CLR M04/M05 A3031 RMK AO2
KSTF 161335Z AUTO 00000KT 10SM CLR M05/M06 A3031 RMK AO2
KSTF 161315Z AUTO 00000KT 10SM CLR M05/M06 A3030 RMK AO2
KSTF 161255Z AUTO 00000KT 10SM CLR M06/M06 A3030 RMK AO2
KSTF 161235Z AUTO 00000KT 10SM CLR M06/M06 A3030 RMK AO2
KSTF 161215Z AUTO 00000KT 10SM CLR M05/M06 A3029 RMK AO2
KSTF 161155Z AUTO 00000KT 10SM CLR M06/M06 A3029 RMK AO2
KSTF 161135Z AUTO 00000KT 10SM CLR M05/M05 A3028 RMK AO2
KSTF 161115Z AUTO 00000KT 10SM CLR M05/M05 A3028 RMK AO2
KSTF 161055Z AUTO 00000KT 10SM CLR M05/M05 A3028 RMK AO2
KSTF 161035Z AUTO 00000KT 10SM CLR M05/M05 A3028 RMK AO2
KSTF 161015Z AUTO 00000KT 10SM CLR M04/M05 A3028 RMK AO2
KSTF 160955Z AUTO 00000KT 10SM CLR M04/M05 A3028 RMK AO2
KSTF 160935Z AUTO 00000KT 10SM CLR M04/M05 A3028 RMK AO2
KSTF 160915Z AUTO 00000KT 10SM CLR M03/M05 A3029 RMK AO2
KSTF 160855Z AUTO 00000KT 10SM CLR M03/M04 A3028 RMK AO2
KSTF 160815Z AUTO 00000KT 10SM CLR M03/M04 A3028 RMK AO2
KSTF 160755Z AUTO 18003KT 10SM CLR M03/M04 A3027 RMK AO2
KSTF 160735Z AUTO 00000KT 10SM CLR M03/M03 A3027 RMK AO2
KSTF 160715Z AUTO 00000KT 10SM CLR M03/M03 A3027 RMK AO2
KSTF 160655Z AUTO 00000KT 10SM CLR M03/M03 A3028 RMK AO2
KSTF 160635Z AUTO 19003KT 10SM CLR M03/M04 A3028 RMK AO2
KSTF 160615Z AUTO 19004KT 10SM CLR M03/M04 A3029 RMK AO2
KSTF 160555Z AUTO 00000KT 10SM CLR M04/M05 A3028 RMK AO2
KSTF 160535Z AUTO 00000KT 10SM CLR M03/M03 A3029 RMK AO2
KSTF 160515Z AUTO 00000KT 10SM CLR M03/M03 A3029 RMK AO2
KSTF 160455Z AUTO 00000KT 10SM CLR M02/M03 A3029 RMK AO2
KSTF 160435Z AUTO 00000KT 10SM CLR M02/M03 A3029 RMK AO2
KSTF 160415Z AUTO 00000KT 10SM CLR M02/M03 A3028 RMK AO2
KSTF 160355Z AUTO 00000KT 10SM CLR M02/M03 A3028 RMK AO2
KSTF 160335Z AUTO 18003KT 10SM CLR M03/M03 A3027 RMK AO2
KSTF 160315Z AUTO 19003KT 10SM CLR M02/M03 A3027 RMK AO2
KSTF 160255Z AUTO 00000KT 10SM CLR M02/M03 A3026 RMK AO2
KSTF 160235Z AUTO 00000KT 10SM CLR M01/M03 A3026 RMK AO2
KSTF 160215Z AUTO 00000KT 10SM CLR M01/M03 A3026 RMK AO2
KSTF 160155Z AUTO 00000KT 10SM CLR M02/M03 A3026 RMK AO2
KSTF 160135Z AUTO 00000KT 10SM CLR 00/M03 A3026 RMK AO2
KSTF 160115Z AUTO 00000KT 10SM CLR 00/M02 A3025 RMK AO2
KSTF 160055Z AUTO 00000KT 10SM CLR 00/M02 A3025 RMK AO2
KSTF 160035Z AUTO 00000KT 10SM CLR 00/M02 A3025 RMK AO2
KSTF 160015Z AUTO 00000KT 10SM CLR 01/M02 A3025 RMK AO2
KSTF 152355Z AUTO 00000KT 10SM CLR 01/M02 A3024 RMK AO2
KSTF 152335Z AUTO 00000KT 10SM CLR 02/M03 A3023 RMK AO2
KSTF 152315Z AUTO 00000KT 10SM CLR 03/M03 A3023 RMK AO2
KSTF 152255Z AUTO 00000KT 10SM CLR 03/M03 A3023 RMK AO2
KSTF 152235Z AUTO 00000KT 10SM CLR 05/M03 A3024 RMK AO2
KSTF 152215Z AUTO 00000KT 10SM CLR 05/M03 A3023 RMK AO2
KSTF 152155Z AUTO 00000KT 10SM CLR 05/M03 A3022 RMK AO2
KSTF 152135Z AUTO 28003KT 10SM CLR 05/M03 A3023 RMK AO2
KSTF 152115Z AUTO 00000KT 10SM CLR 05/M03 A3023 RMK AO2
KSTF 152055Z AUTO 00000KT 10SM CLR 05/M03 A3023 RMK AO2
KSTF 152035Z AUTO 00000KT 10SM CLR 05/M03 A3023 RMK AO2
KSTF 152015Z AUTO 31003KT 10SM CLR 05/M03 A3022 RMK AO2
KSTF 151955Z AUTO 35004KT 10SM CLR 05/M03 A3024 RMK AO2
KSTF 151935Z AUTO 02006KT 10SM CLR 05/M03 A3024 RMK AO2
KSTF 151915Z AUTO 31004KT 10SM CLR 04/M03 A3025 RMK AO2
KSTF 151855Z AUTO 36004KT 10SM CLR 05/M03 A3025 RMK AO2
KSTF 151835Z AUTO 35004KT 10SM CLR 04/M03 A3025 RMK AO2
KSTF 151815Z AUTO 01007KT 10SM CLR 04/M03 A3026 RMK AO2
KSTF 151755Z AUTO 35004KT 10SM CLR 04/M02 A3028 RMK AO2
KSTF 151735Z AUTO 36005KT 10SM CLR 03/M02 A3028 RMK AO2
KSTF 151715Z AUTO 34005KT 10SM CLR 03/M02 A3028 RMK AO2
KSTF 151655Z AUTO 31004KT 10SM CLR 03/M02 A3029 RMK AO2
KSTF 151635Z AUTO 34003KT 10SM CLR 03/M02 A3030 RMK AO2
KSTF 151615Z AUTO 35003KT 10SM CLR 03/M02 A3027 RMK AO2
KSTF 151555Z AUTO 35004KT 10SM CLR 02/M01 A3027 RMK AO2
KSTF 151535Z AUTO 35005KT 10SM CLR 02/M01 A3025 RMK AO2
KSTF 151515Z AUTO 33003KT 10SM CLR 01/M01 A3024 RMK AO2
KSTF 151455Z AUTO 33003KT 10SM CLR 01/M01 A3023 RMK AO2
KSTF 151435Z AUTO 00000KT 10SM CLR 00/M02 A3022 RMK AO2
KSTF 151415Z AUTO 00000KT 10SM CLR 00/M02 A3022 RMK AO2
KSTF 151355Z AUTO 00000KT 10SM CLR 00/M02 A3022 RMK AO2
KSTF 151335Z AUTO 33003KT 10SM CLR 00/M02 A3020 RMK AO2
KSTF 151315Z AUTO 33004KT 10SM CLR 00/M02 A3020 RMK AO2
KSTF 151255Z AUTO 32003KT 10SM CLR 00/M02 A3019 RMK AO2
KSTF 151235Z AUTO 00000KT 10SM CLR 00/M02 A3017 RMK AO2